sensor_id;sensor_type;location;lat;lon;timestamp;pressure;altitude;pressure_sealevel;temperature;humidity
65666;BME280;52365;47.464;18.976;2023-01-29T00:00:31;100458.75;;;3.70;63.31
65666;BME280;52365;47.464;18.976;2023-01-29T00:01:08;100458.03;;;3.66;62.84
65666;BME280;52365;47.464;18.976;2023-01-29T00:01:44;100454.94;;;3.71;62.71
65666;BME280;52365;47.464;18.976;2023-01-29T00:02:20;100454.97;;;3.68;62.33
65666;BME280;52365;47.464;18.976;2023-01-29T00:02:56;100466.09;;;3.45;63.21
65666;BME280;52365;47.464;18.976;2023-01-29T00:03:33;100456.28;;;3.31;63.79
65666;BME280;52365;47.464;18.976;2023-01-29T00:04:09;100464.28;;;3.20;64.24
65666;BME280;52365;47.464;18.976;2023-01-29T00:04:45;100460.84;;;3.34;64.12
65666;BME280;52365;47.464;18.976;2023-01-29T00:05:21;100464.19;;;3.49;63.99
65666;BME280;52365;47.464;18.976;2023-01-29T00:05:58;100458.44;;;3.54;63.67
65666;BME280;52365;47.464;18.976;2023-01-29T00:06:34;100454.19;;;3.67;63.32
65666;BME280;52365;47.464;18.976;2023-01-29T00:07:10;100459.94;;;3.62;63.20
65666;BME280;52365;47.464;18.976;2023-01-29T00:07:46;100461.09;;;3.65;63.25
65666;BME280;52365;47.464;18.976;2023-01-29T00:08:23;100453.47;;;3.63;63.02
65666;BME280;52365;47.464;18.976;2023-01-29T00:08:59;100457.31;;;3.55;63.15
65666;BME280;52365;47.464;18.976;2023-01-29T00:09:35;100456.12;;;3.67;63.16
65666;BME280;52365;47.464;18.976;2023-01-29T00:10:11;100460.31;;;3.64;63.02
65666;BME280;52365;47.464;18.976;2023-01-29T00:10:48;100462.19;;;3.67;62.97
65666;BME280;52365;47.464;18.976;2023-01-29T00:11:24;100459.94;;;3.62;62.89
65666;BME280;52365;47.464;18.976;2023-01-29T00:12:00;100465.69;;;3.57;63.00
65666;BME280;52365;47.464;18.976;2023-01-29T00:12:36;100463.78;;;3.54;63.36
65666;BME280;52365;47.464;18.976;2023-01-29T00:13:12;100462.59;;;3.62;63.45
65666;BME280;52365;47.464;18.976;2023-01-29T00:13:48;100472.53;;;3.54;63.72
65666;BME280;52365;47.464;18.976;2023-01-29T00:14:24;100462.59;;;3.62;63.60
65666;BME280;52365;47.464;18.976;2023-01-29T00:15:04;100462.59;;;3.66;63.48
65666;BME280;52365;47.464;18.976;2023-01-29T00:15:40;100462.62;;;3.59;63.58
65666;BME280;52365;47.464;18.976;2023-01-29T00:16:17;100459.59;;;3.60;63.74
65666;BME280;52365;47.464;18.976;2023-01-29T00:16:53;100471.41;;;3.52;64.02
65666;BME280;52365;47.464;18.976;2023-01-29T00:17:29;100467.59;;;3.53;64.15
65666;BME280;52365;47.464;18.976;2023-01-29T00:18:06;100472.94;;;3.57;64.12
65666;BME280;52365;47.464;18.976;2023-01-29T00:18:42;100464.88;;;3.64;64.00
65666;BME280;52365;47.464;18.976;2023-01-29T00:19:18;100469.44;;;3.67;63.78
65666;BME280;52365;47.464;18.976;2023-01-29T00:19:54;100467.94;;;3.66;64.00
65666;BME280;52365;47.464;18.976;2023-01-29T00:20:31;100482.44;;;3.54;64.11
65666;BME280;52365;47.464;18.976;2023-01-29T00:21:17;100476.38;;;3.46;64.30
65666;BME280;52365;47.464;18.976;2023-01-29T00:21:53;100471.84;;;3.33;64.49
65666;BME280;52365;47.464;18.976;2023-01-29T00:22:29;100466.53;;;3.36;65.07
65666;BME280;52365;47.464;18.976;2023-01-29T00:23:05;100478.63;;;3.55;64.45
65666;BME280;52365;47.464;18.976;2023-01-29T00:23:42;100472.44;;;3.79;63.88
65666;BME280;52365;47.464;18.976;2023-01-29T00:24:18;100477.75;;;3.79;63.27
65666;BME280;52365;47.464;18.976;2023-01-29T00:24:54;100478.09;;;3.89;63.16
65666;BME280;52365;47.464;18.976;2023-01-29T00:25:30;100473.56;;;3.82;63.09
65666;BME280;52365;47.464;18.976;2023-01-29T00:26:06;100480.09;;;3.70;63.44
65666;BME280;52365;47.464;18.976;2023-01-29T00:26:43;100478.97;;;3.64;63.72
65666;BME280;52365;47.464;18.976;2023-01-29T00:27:19;100467.09;;;3.76;63.82
65666;BME280;52365;47.464;18.976;2023-01-29T00:27:55;100482.59;;;3.99;63.27
65666;BME280;52365;47.464;18.976;2023-01-29T00:28:31;100481.03;;;4.05;62.81
65666;BME280;52365;47.464;18.976;2023-01-29T00:29:07;100477.56;;;4.12;62.36
65666;BME280;52365;47.464;18.976;2023-01-29T00:29:43;100474.22;;;4.00;62.30
65666;BME280;52365;47.464;18.976;2023-01-29T00:30:37;100483.38;;;3.96;62.43
65666;BME280;52365;47.464;18.976;2023-01-29T00:31:16;100478.94;;;3.71;62.41
65666;BME280;52365;47.464;18.976;2023-01-29T00:31:52;100486.25;;;3.53;63.44
65666;BME280;52365;47.464;18.976;2023-01-29T00:32:28;100482.84;;;3.49;63.97
65666;BME280;52365;47.464;18.976;2023-01-29T00:33:05;100483.25;;;3.44;64.43
65666;BME280;52365;47.464;18.976;2023-01-29T00:33:41;100475.16;;;3.69;64.07
65666;BME280;52365;47.464;18.976;2023-01-29T00:34:17;100479.69;;;3.72;63.47
65666;BME280;52365;47.464;18.976;2023-01-29T00:34:53;100481.50;;;3.89;63.13
65666;BME280;52365;47.464;18.976;2023-01-29T00:35:30;100483.75;;;3.98;62.75
65666;BME280;52365;47.464;18.976;2023-01-29T00:36:08;100482.66;;;3.92;62.54
65666;BME280;52365;47.464;18.976;2023-01-29T00:36:44;100480.75;;;3.92;62.36
65666;BME280;52365;47.464;18.976;2023-01-29T00:37:21;100486.19;;;3.71;62.39
65666;BME280;52365;47.464;18.976;2023-01-29T00:37:57;100478.25;;;3.60;62.81
65666;BME280;52365;47.464;18.976;2023-01-29T00:38:34;100487.00;;;3.57;62.91
65666;BME280;52365;47.464;18.976;2023-01-29T00:39:10;100484.75;;;3.52;62.89
65666;BME280;52365;47.464;18.976;2023-01-29T00:39:52;100488.94;;;3.42;62.93
65666;BME280;52365;47.464;18.976;2023-01-29T00:40:28;100479.84;;;3.40;63.02
65666;BME280;52365;47.464;18.976;2023-01-29T00:41:29;100485.91;;;3.44;62.87
65666;BME280;52365;47.464;18.976;2023-01-29T00:42:24;100484.75;;;3.45;62.85
65666;BME280;52365;47.464;18.976;2023-01-29T00:43:19;100483.19;;;3.58;62.66
65666;BME280;52365;47.464;18.976;2023-01-29T00:44:14;100481.91;;;3.88;61.89
65666;BME280;52365;47.464;18.976;2023-01-29T00:45:10;100486.41;;;4.01;61.13
65666;BME280;52365;47.464;18.976;2023-01-29T00:45:46;100488.03;;;3.81;61.22
65666;BME280;52365;47.464;18.976;2023-01-29T00:46:22;100492.28;;;3.68;61.76
65666;BME280;52365;47.464;18.976;2023-01-29T00:46:58;100490.84;;;3.52;62.32
65666;BME280;52365;47.464;18.976;2023-01-29T00:47:34;100489.28;;;3.55;62.72
65666;BME280;52365;47.464;18.976;2023-01-29T00:48:11;100484.31;;;3.61;62.48
65666;BME280;52365;47.464;18.976;2023-01-29T00:48:47;100488.84;;;3.67;62.35
65666;BME280;52365;47.464;18.976;2023-01-29T00:49:23;100481.56;;;3.82;61.98
65666;BME280;52365;47.464;18.976;2023-01-29T00:50:01;100486.84;;;3.86;61.57
65666;BME280;52365;47.464;18.976;2023-01-29T00:50:37;100484.22;;;3.82;61.55
65666;BME280;52365;47.464;18.976;2023-01-29T00:51:13;100499.19;;;3.58;61.89
65666;BME280;52365;47.464;18.976;2023-01-29T00:51:49;100492.47;;;3.18;63.05
65666;BME280;52365;47.464;18.976;2023-01-29T00:52:44;100492.81;;;3.31;63.67
65666;BME280;52365;47.464;18.976;2023-01-29T00:53:20;100498.44;;;3.50;63.07
65666;BME280;52365;47.464;18.976;2023-01-29T00:53:57;100490.34;;;3.72;62.66
65666;BME280;52365;47.464;18.976;2023-01-29T00:54:34;100497.59;;;3.71;62.49
65666;BME280;52365;47.464;18.976;2023-01-29T00:55:11;100488.84;;;3.74;62.06
65666;BME280;52365;47.464;18.976;2023-01-29T00:55:47;100487.69;;;3.75;61.80
65666;BME280;52365;47.464;18.976;2023-01-29T00:56:24;100492.25;;;3.71;61.76
65666;BME280;52365;47.464;18.976;2023-01-29T00:57:02;100494.59;;;3.66;62.19
65666;BME280;52365;47.464;18.976;2023-01-29T00:57:38;100493.84;;;3.54;62.57
65666;BME280;52365;47.464;18.976;2023-01-29T00:58:15;100492.69;;;3.59;62.86
65666;BME280;52365;47.464;18.976;2023-01-29T00:58:56;100494.63;;;3.55;63.10
65666;BME280;52365;47.464;18.976;2023-01-29T00:59:32;100496.50;;;3.65;62.82
65666;BME280;52365;47.464;18.976;2023-01-29T01:00:12;100490.75;;;3.70;62.03
65666;BME280;52365;47.464;18.976;2023-01-29T01:00:48;100497.59;;;3.68;62.11
65666;BME280;52365;47.464;18.976;2023-01-29T01:01:25;100495.75;;;3.65;62.18
65666;BME280;52365;47.464;18.976;2023-01-29T01:02:20;100488.09;;;3.63;62.00
65666;BME280;52365;47.464;18.976;2023-01-29T01:03:15;100493.81;;;3.65;62.26
65666;BME280;52365;47.464;18.976;2023-01-29T01:03:51;100497.69;;;3.50;61.99
65666;BME280;52365;47.464;18.976;2023-01-29T01:04:27;100488.19;;;3.49;62.04
65666;BME280;52365;47.464;18.976;2023-01-29T01:05:04;100488.16;;;3.56;62.12
65666;BME280;52365;47.464;18.976;2023-01-29T01:05:42;100485.38;;;3.77;62.25
65666;BME280;52365;47.464;18.976;2023-01-29T01:06:18;100490.59;;;3.99;61.29
65666;BME280;52365;47.464;18.976;2023-01-29T01:06:54;100487.97;;;3.95;61.12
65666;BME280;52365;47.464;18.976;2023-01-29T01:07:31;100484.56;;;3.88;61.61
65666;BME280;52365;47.464;18.976;2023-01-29T01:08:08;100491.41;;;3.89;61.35
65666;BME280;52365;47.464;18.976;2023-01-29T01:09:04;100487.66;;;3.83;61.13
65666;BME280;52365;47.464;18.976;2023-01-29T01:09:59;100494.94;;;3.71;61.47
65666;BME280;52365;47.464;18.976;2023-01-29T01:10:58;100488.53;;;3.58;61.47
65666;BME280;52365;47.464;18.976;2023-01-29T01:11:34;100493.84;;;3.58;61.73
65666;BME280;52365;47.464;18.976;2023-01-29T01:12:10;100488.53;;;3.58;61.97
65666;BME280;52365;47.464;18.976;2023-01-29T01:12:53;100480.50;;;3.65;61.97
65666;BME280;52365;47.464;18.976;2023-01-29T01:13:32;100490.03;;;3.63;62.22
65666;BME280;52365;47.464;18.976;2023-01-29T01:14:08;100490.41;;;3.65;61.93
65666;BME280;52365;47.464;18.976;2023-01-29T01:14:44;100491.53;;;3.64;62.04
65666;BME280;52365;47.464;18.976;2023-01-29T01:15:22;100486.25;;;3.60;62.36
65666;BME280;52365;47.464;18.976;2023-01-29T01:15:58;100484.69;;;3.66;62.39
65666;BME280;52365;47.464;18.976;2023-01-29T01:16:34;100491.16;;;3.69;62.59
65666;BME280;52365;47.464;18.976;2023-01-29T01:17:11;100483.09;;;3.79;62.13
65666;BME280;52365;47.464;18.976;2023-01-29T01:17:47;100485.41;;;3.74;62.23
65666;BME280;52365;47.464;18.976;2023-01-29T01:18:23;100485.34;;;3.85;62.02
65666;BME280;52365;47.464;18.976;2023-01-29T01:19:00;100485.34;;;3.85;61.82
65666;BME280;52365;47.464;18.976;2023-01-29T01:19:37;100488.41;;;3.87;61.85
65666;BME280;52365;47.464;18.976;2023-01-29T01:20:13;100480.00;;;3.85;61.75
65666;BME280;52365;47.464;18.976;2023-01-29T01:20:56;100485.38;;;3.77;61.51
65666;BME280;52365;47.464;18.976;2023-01-29T01:21:32;100480.91;;;3.57;61.92
65666;BME280;52365;47.464;18.976;2023-01-29T01:22:08;100491.59;;;3.53;62.77
65666;BME280;52365;47.464;18.976;2023-01-29T01:22:44;100495.75;;;3.58;62.62
65666;BME280;52365;47.464;18.976;2023-01-29T01:23:21;100490.75;;;3.70;62.41
65666;BME280;52365;47.464;18.976;2023-01-29T01:23:57;100496.09;;;3.63;62.26
65666;BME280;52365;47.464;18.976;2023-01-29T01:24:33;100489.34;;;3.44;62.19
65666;BME280;52365;47.464;18.976;2023-01-29T01:25:09;100486.31;;;3.35;62.76
65666;BME280;52365;47.464;18.976;2023-01-29T01:25:45;100490.91;;;3.27;63.07
65666;BME280;52365;47.464;18.976;2023-01-29T01:26:21;100491.72;;;3.14;63.72
65666;BME280;52365;47.464;18.976;2023-01-29T01:26:57;100489.44;;;3.12;64.00
65666;BME280;52365;47.464;18.976;2023-01-29T01:27:33;100487.94;;;3.08;64.18
65666;BME280;52365;47.464;18.976;2023-01-29T01:28:09;100493.28;;;2.90;64.64
65666;BME280;52365;47.464;18.976;2023-01-29T01:28:45;100488.31;;;2.99;64.59
65666;BME280;52365;47.464;18.976;2023-01-29T01:29:21;100479.19;;;3.00;64.06
65666;BME280;52365;47.464;18.976;2023-01-29T01:29:58;100491.75;;;2.96;64.24
65666;BME280;52365;47.464;18.976;2023-01-29T01:30:34;100487.94;;;3.08;63.99
65666;BME280;52365;47.464;18.976;2023-01-29T01:31:11;100487.94;;;3.08;63.77
65666;BME280;52365;47.464;18.976;2023-01-29T01:31:48;100487.16;;;3.03;63.71
65666;BME280;52365;47.464;18.976;2023-01-29T01:32:24;100491.75;;;3.03;63.75
65666;BME280;52365;47.464;18.976;2023-01-29T01:33:00;100494.37;;;3.07;63.83
65666;BME280;52365;47.464;18.976;2023-01-29T01:33:37;100495.53;;;3.13;63.65
65666;BME280;52365;47.464;18.976;2023-01-29T01:34:14;100494.75;;;3.09;63.82
65666;BME280;52365;47.464;18.976;2023-01-29T01:34:51;100488.66;;;3.19;63.62
65666;BME280;52365;47.464;18.976;2023-01-29T01:35:28;100493.22;;;3.15;63.53
65666;BME280;52365;47.464;18.976;2023-01-29T01:36:05;100490.16;;;3.27;63.34
65666;BME280;52365;47.464;18.976;2023-01-29T01:36:44;100489.06;;;3.03;63.89
65666;BME280;52365;47.464;18.976;2023-01-29T01:37:20;100493.63;;;3.06;63.98
65666;BME280;52365;47.464;18.976;2023-01-29T01:37:56;100492.47;;;3.11;63.85
65666;BME280;52365;47.464;18.976;2023-01-29T01:38:32;100494.78;;;3.01;64.24
65666;BME280;52365;47.464;18.976;2023-01-29T01:39:09;100489.44;;;3.01;64.09
65666;BME280;52365;47.464;18.976;2023-01-29T01:39:45;100496.31;;;2.99;64.17
65666;BME280;52365;47.464;18.976;2023-01-29T01:40:24;100492.09;;;3.05;63.91
65666;BME280;52365;47.464;18.976;2023-01-29T01:41:00;100500.50;;;2.96;63.94
65666;BME280;52365;47.464;18.976;2023-01-29T01:41:36;100500.50;;;3.00;64.07
65666;BME280;52365;47.464;18.976;2023-01-29T01:42:12;100499.38;;;2.90;64.09
65666;BME280;52365;47.464;18.976;2023-01-29T01:42:50;100505.03;;;3.07;63.99
65666;BME280;52365;47.464;18.976;2023-01-29T01:43:26;100493.59;;;3.17;63.74
65666;BME280;52365;47.464;18.976;2023-01-29T01:44:03;100501.56;;;3.27;63.04
65666;BME280;52365;47.464;18.976;2023-01-29T01:44:53;100499.69;;;3.21;62.85
65666;BME280;52365;47.464;18.976;2023-01-29T01:45:31;100506.19;;;2.98;63.35
65666;BME280;52365;47.464;18.976;2023-01-29T01:46:08;100504.31;;;2.99;63.57
65666;BME280;52365;47.464;18.976;2023-01-29T01:46:44;100497.44;;;2.98;63.71
65666;BME280;52365;47.464;18.976;2023-01-29T01:47:37;100505.37;;;3.30;63.10
65666;BME280;52365;47.464;18.976;2023-01-29T01:48:23;100497.78;;;3.21;62.73
65666;BME280;52365;47.464;18.976;2023-01-29T01:49:18;100505.72;;;3.36;62.35
65666;BME280;52365;47.464;18.976;2023-01-29T01:50:00;100511.84;;;3.25;62.56
65666;BME280;52365;47.464;18.976;2023-01-29T01:50:57;100501.56;;;3.35;62.32
65666;BME280;52365;47.464;18.976;2023-01-29T01:51:45;100509.56;;;3.20;62.59
65666;BME280;52365;47.464;18.976;2023-01-29T01:52:21;100507.22;;;3.47;62.34
65666;BME280;52365;47.464;18.976;2023-01-29T01:53:01;100509.41;;;3.67;61.61
65666;BME280;52365;47.464;18.976;2023-01-29T01:53:56;100505.97;;;3.73;61.07
65666;BME280;52365;47.464;18.976;2023-01-29T01:54:36;100508.34;;;3.50;61.12
65666;BME280;52365;47.464;18.976;2023-01-29T01:55:16;100514.13;;;3.31;61.70
65666;BME280;52365;47.464;18.976;2023-01-29T01:56:00;100506.94;;;3.10;62.88
65666;BME280;52365;47.464;18.976;2023-01-29T01:56:52;100514.19;;;2.95;63.47
65666;BME280;52365;47.464;18.976;2023-01-29T01:57:30;100508.09;;;2.80;63.96
65666;BME280;52365;47.464;18.976;2023-01-29T01:58:13;100511.53;;;2.70;64.24
65666;BME280;52365;47.464;18.976;2023-01-29T01:58:54;100515.72;;;2.60;64.65
65666;BME280;52365;47.464;18.976;2023-01-29T01:59:31;100514.19;;;2.52;65.00
65666;BME280;52365;47.464;18.976;2023-01-29T02:00:11;100511.16;;;2.53;65.21
65666;BME280;52365;47.464;18.976;2023-01-29T02:00:49;100509.25;;;2.40;65.74
65666;BME280;52365;47.464;18.976;2023-01-29T02:01:25;100514.22;;;2.77;65.14
65666;BME280;52365;47.464;18.976;2023-01-29T02:02:05;100513.81;;;3.00;64.20
65666;BME280;52365;47.464;18.976;2023-01-29T02:03:01;100506.53;;;3.25;63.25
65666;BME280;52365;47.464;18.976;2023-01-29T02:04:26;100507.31;;;3.12;62.62
65666;BME280;52365;47.464;18.976;2023-01-29T02:05:21;100519.91;;;2.61;64.59
65666;BME280;52365;47.464;18.976;2023-01-29T02:06:16;100511.91;;;2.47;64.95
65666;BME280;52365;47.464;18.976;2023-01-29T02:07:13;100515.69;;;2.24;66.15
65666;BME280;52365;47.464;18.976;2023-01-29T02:08:08;100523.69;;;2.24;66.50
65666;BME280;52365;47.464;18.976;2023-01-29T02:09:10;100519.84;;;2.11;67.04
65666;BME280;52365;47.464;18.976;2023-01-29T02:10:14;100521.00;;;2.17;66.91
65666;BME280;52365;47.464;18.976;2023-01-29T02:10:51;100508.84;;;2.23;66.79
65666;BME280;52365;47.464;18.976;2023-01-29T02:11:27;100519.84;;;2.18;66.96
65666;BME280;52365;47.464;18.976;2023-01-29T02:12:10;100520.22;;;2.10;67.08
65666;BME280;52365;47.464;18.976;2023-01-29T02:12:46;100512.25;;;2.17;67.21
65666;BME280;52365;47.464;18.976;2023-01-29T02:13:22;100521.75;;;2.21;67.09
65666;BME280;52365;47.464;18.976;2023-01-29T02:13:58;100520.25;;;2.27;66.86
65666;BME280;52365;47.464;18.976;2023-01-29T02:14:36;100522.16;;;2.31;66.67
65666;BME280;52365;47.464;18.976;2023-01-29T02:15:14;100522.19;;;2.38;66.45
65666;BME280;52365;47.464;18.976;2023-01-29T02:15:50;100515.69;;;2.32;66.22
65666;BME280;52365;47.464;18.976;2023-01-29T02:16:26;100522.13;;;2.23;66.41
65666;BME280;52365;47.464;18.976;2023-01-29T02:17:02;100516.09;;;2.48;66.21
65666;BME280;52365;47.464;18.976;2023-01-29T02:17:38;100522.19;;;2.52;65.66
65666;BME280;52365;47.464;18.976;2023-01-29T02:18:20;100525.97;;;2.44;65.45
65666;BME280;52365;47.464;18.976;2023-01-29T02:18:56;100522.19;;;2.38;65.71
65666;BME280;52365;47.464;18.976;2023-01-29T02:20:01;100521.78;;;2.43;65.76
65666;BME280;52365;47.464;18.976;2023-01-29T02:20:41;100526.75;;;2.37;65.75
65666;BME280;52365;47.464;18.976;2023-01-29T02:25:02;100527.12;;;2.64;65.13
65666;BME280;52365;47.464;18.976;2023-01-29T02:26:40;100527.12;;;2.64;64.87
65666;BME280;52365;47.464;18.976;2023-01-29T02:27:24;100529.78;;;2.71;64.72
65666;BME280;52365;47.464;18.976;2023-01-29T02:28:11;100531.69;;;2.71;64.58
65666;BME280;52365;47.464;18.976;2023-01-29T02:29:17;100525.25;;;2.68;64.55
65666;BME280;52365;47.464;18.976;2023-01-29T02:30:02;100534.69;;;2.41;64.71
65666;BME280;52365;47.464;18.976;2023-01-29T02:31:00;100536.97;;;2.32;65.16
65666;BME280;52365;47.464;18.976;2023-01-29T02:31:44;100532.81;;;2.34;65.48
65666;BME280;52365;47.464;18.976;2023-01-29T02:34:03;100533.56;;;2.35;65.76
65666;BME280;52365;47.464;18.976;2023-01-29T02:34:35;100532.78;;;2.27;65.27
65666;BME280;52365;47.464;18.976;2023-01-29T02:37:13;100534.12;;;1.71;67.98
65666;BME280;52365;47.464;18.976;2023-01-29T02:38:07;100537.28;;;1.94;67.55
65666;BME280;52365;47.464;18.976;2023-01-29T02:38:53;100538.75;;;1.81;67.37
65666;BME280;52365;47.464;18.976;2023-01-29T02:39:44;100535.25;;;1.63;68.54
65666;BME280;52365;47.464;18.976;2023-01-29T02:41:36;100537.56;;;1.68;68.50
65666;BME280;52365;47.464;18.976;2023-01-29T02:42:43;100532.66;;;1.81;68.25
65666;BME280;52365;47.464;18.976;2023-01-29T02:44:36;100527.38;;;1.88;67.39
65666;BME280;52365;47.464;18.976;2023-01-29T02:45:41;100530.72;;;1.70;67.81
65666;BME280;52365;47.464;18.976;2023-01-29T02:47:21;100537.94;;;1.73;68.09
65666;BME280;52365;47.464;18.976;2023-01-29T02:47:59;100528.47;;;1.76;68.31
65666;BME280;52365;47.464;18.976;2023-01-29T02:48:49;100541.34;;;1.70;68.49
65666;BME280;52365;47.464;18.976;2023-01-29T02:49:51;100544.75;;;1.67;68.59
65666;BME280;52365;47.464;18.976;2023-01-29T02:51:35;100544.66;;;1.46;69.24
65666;BME280;52365;47.464;18.976;2023-01-29T02:52:27;100541.94;;;1.35;69.73
65666;BME280;52365;47.464;18.976;2023-01-29T02:53:18;100547.22;;;1.28;70.36
65666;BME280;52365;47.464;18.976;2023-01-29T02:54:04;100544.94;;;1.30;70.12
65666;BME280;52365;47.464;18.976;2023-01-29T02:54:53;100547.94;;;1.25;70.16
65666;BME280;52365;47.464;18.976;2023-01-29T02:56:20;100546.47;;;1.28;70.60
65666;BME280;52365;47.464;18.976;2023-01-29T02:57:00;100541.91;;;1.32;70.52
65666;BME280;52365;47.464;18.976;2023-01-29T02:57:42;100541.31;;;1.60;69.96
65666;BME280;52365;47.464;18.976;2023-01-29T02:59:23;100541.00;;;1.72;68.90
65666;BME280;52365;47.464;18.976;2023-01-29T03:00:11;100550.06;;;1.67;68.84
65666;BME280;52365;47.464;18.976;2023-01-29T03:00:50;100552.16;;;1.33;69.58
65666;BME280;52365;47.464;18.976;2023-01-29T03:01:35;100552.16;;;1.30;70.06
65666;BME280;52365;47.464;18.976;2023-01-29T03:02:18;100546.91;;;1.44;69.88
65666;BME280;52365;47.464;18.976;2023-01-29T03:03:50;100551.88;;;1.49;69.63
65666;BME280;52365;47.464;18.976;2023-01-29T03:04:35;100550.78;;;1.57;69.39
65666;BME280;52365;47.464;18.976;2023-01-29T03:05:22;100541.56;;;1.40;69.72
65666;BME280;52365;47.464;18.976;2023-01-29T03:06:23;100542.03;;;1.49;69.81
65666;BME280;52365;47.464;18.976;2023-01-29T03:07:06;100549.22;;;1.45;69.29
65666;BME280;52365;47.464;18.976;2023-01-29T03:07:52;100547.69;;;1.48;nan
65666;BME280;52365;47.464;18.976;2023-01-29T03:08:38;100547.00;;;1.62;69.33
65666;BME280;52365;47.464;18.976;2023-01-29T03:09:35;100550.44;;;1.69;68.96
65666;BME280;52365;47.464;18.976;2023-01-29T03:10:22;100556.06;;;1.50;69.15
65666;BME280;52365;47.464;18.976;2023-01-29T03:11:02;100546.13;;;1.40;69.69
65666;BME280;52365;47.464;18.976;2023-01-29T03:11:47;100545.94;;;1.77;69.35
65666;BME280;52365;47.464;18.976;2023-01-29T03:12:26;100555.53;;;2.10;68.27
65666;BME280;52365;47.464;18.976;2023-01-29T03:13:18;100549.53;;;2.35;67.17
65666;BME280;52365;47.464;18.976;2023-01-29T03:14:01;100550.69;;;2.48;66.25
65666;BME280;52365;47.464;18.976;2023-01-29T03:14:39;100551.84;;;2.61;65.66
65666;BME280;52365;47.464;18.976;2023-01-29T03:15:41;100548.78;;;2.66;65.20
65666;BME280;52365;47.464;18.976;2023-01-29T03:16:28;100552.59;;;3.08;63.65
65666;BME280;52365;47.464;18.976;2023-01-29T03:17:06;100554.47;;;3.22;62.55
65666;BME280;52365;47.464;18.976;2023-01-29T03:18:35;100559.06;;;2.96;62.76
65666;BME280;52365;47.464;18.976;2023-01-29T03:19:55;100552.56;;;2.55;64.27
65666;BME280;52365;47.464;18.976;2023-01-29T03:20:34;100552.09;;;2.06;65.57
65666;BME280;52365;47.464;18.976;2023-01-29T03:21:24;100558.97;;;2.07;66.20
65666;BME280;52365;47.464;18.976;2023-01-29T03:22:21;100555.56;;;2.17;66.02
65666;BME280;52365;47.464;18.976;2023-01-29T03:23:23;100555.94;;;2.12;66.49
65666;BME280;52365;47.464;18.976;2023-01-29T03:24:03;100557.88;;;2.30;66.15
65666;BME280;52365;47.464;18.976;2023-01-29T03:25:00;100561.72;;;2.64;65.40
65666;BME280;52365;47.464;18.976;2023-01-29T03:25:57;100551.84;;;2.50;64.84
65666;BME280;52365;47.464;18.976;2023-01-29T03:26:53;100555.63;;;2.42;65.22
65666;BME280;52365;47.464;18.976;2023-01-29T03:27:59;100555.22;;;2.30;65.61
65666;BME280;52365;47.464;18.976;2023-01-29T03:28:56;100554.81;;;2.17;66.15
65666;BME280;52365;47.464;18.976;2023-01-29T03:29:53;100560.19;;;2.38;66.22
65666;BME280;52365;47.464;18.976;2023-01-29T03:30:52;100560.16;;;2.45;65.51
65666;BME280;52365;47.464;18.976;2023-01-29T03:31:47;100562.50;;;2.65;65.43
65666;BME280;52365;47.464;18.976;2023-01-29T03:32:44;100567.78;;;2.47;65.11
65666;BME280;52365;47.464;18.976;2023-01-29T03:33:25;100563.91;;;2.19;66.01
65666;BME280;52365;47.464;18.976;2023-01-29T03:34:48;100569.16;;;1.91;67.64
65666;BME280;52365;47.464;18.976;2023-01-29T03:35:27;100563.16;;;2.22;67.26
65666;BME280;52365;47.464;18.976;2023-01-29T03:36:16;100569.59;;;2.07;66.92
65666;BME280;52365;47.464;18.976;2023-01-29T03:36:56;100576.81;;;2.14;67.15
65666;BME280;52365;47.464;18.976;2023-01-29T03:37:42;100563.88;;;1.98;67.14
65666;BME280;52365;47.464;18.976;2023-01-29T03:38:20;100565.00;;;2.00;67.40
65666;BME280;52365;47.464;18.976;2023-01-29T03:38:56;100565.75;;;1.94;67.54
65666;BME280;52365;47.464;18.976;2023-01-29T03:39:32;100570.31;;;1.97;67.80
65666;BME280;52365;47.464;18.976;2023-01-29T03:40:10;100569.19;;;2.01;68.26
65666;BME280;52365;47.464;18.976;2023-01-29T03:40:58;100568.09;;;2.17;68.10
65666;BME280;52365;47.464;18.976;2023-01-29T03:42:03;100569.31;;;2.48;67.30
65666;BME280;52365;47.464;18.976;2023-01-29T03:43:09;100569.69;;;2.50;66.75
65666;BME280;52365;47.464;18.976;2023-01-29T03:44:04;100570.84;;;2.56;66.61
65666;BME280;52365;47.464;18.976;2023-01-29T03:46:10;100566.63;;;2.44;66.35
65666;BME280;52365;47.464;18.976;2023-01-29T03:47:00;100572.31;;;2.36;66.71
65666;BME280;52365;47.464;18.976;2023-01-29T03:48:10;100576.16;;;2.56;66.66
65666;BME280;52365;47.464;18.976;2023-01-29T03:49:02;100573.47;;;2.49;66.54
65666;BME280;52365;47.464;18.976;2023-01-29T03:51:29;100581.84;;;2.58;67.09
65666;BME280;52365;47.464;18.976;2023-01-29T03:54:26;100576.53;;;2.58;66.60
65666;BME280;52365;47.464;18.976;2023-01-29T03:55:09;100586.78;;;2.63;66.82
65666;BME280;52365;47.464;18.976;2023-01-29T03:56:12;100580.34;;;2.61;66.86
65666;BME280;52365;47.464;18.976;2023-01-29T03:58:07;100583.03;;;2.82;66.25
65666;BME280;52365;47.464;18.976;2023-01-29T03:58:59;100574.66;;;2.76;65.91
65666;BME280;52365;47.464;18.976;2023-01-29T03:59:43;100576.19;;;2.74;65.94
65666;BME280;52365;47.464;18.976;2023-01-29T04:00:27;100576.16;;;2.67;65.89
65666;BME280;52365;47.464;18.976;2023-01-29T04:01:31;100572.75;;;2.73;65.58
65666;BME280;52365;47.464;18.976;2023-01-29T04:02:24;100575.41;;;2.84;65.09
65666;BME280;52365;47.464;18.976;2023-01-29T04:04:32;100573.91;;;2.87;65.12
65666;BME280;52365;47.464;18.976;2023-01-29T04:05:15;100576.94;;;2.92;64.77
65666;BME280;52365;47.464;18.976;2023-01-29T04:06:01;100578.06;;;2.84;65.03
65666;BME280;52365;47.464;18.976;2023-01-29T04:06:46;100576.94;;;2.78;65.18